Time;durP1;ratioP1;P1;durP2;ratioP2;P2;SDS_P1;SDS_P2;PMS_P1;PMS_P2;Temp;Humidity;BMP_temperature;BMP_pressure;BME280_temperature;BME280_humidity;BME280_pressure;Samples;Min_cycle;Max_cycle;Signal;HPM_P1;HPM_P2
2021/08/06 00:01:13;;;;;;;539.03;400.00;;;;;;;16.21;80.02;100365.53;5018897;28;20463;-77
2021/08/06 00:03:39;;;;;;;409.10;274.53;;;;;;;16.48;80.56;100449.56;5019942;28;20219;-77
2021/08/06 00:06:06;;;;;;;434.33;305.43;;;;;;;16.60;80.59;100446.75;5013598;28;20439;-77
2021/08/06 00:08:32;;;;;;;516.97;359.30;;;;;;;15.28;80.77;100254.25;5015094;28;20188;-77
2021/08/06 00:10:58;;;;;;;380.23;251.57;;;;;;;15.68;80.39;100318.19;5017336;28;20467;-77
2021/08/06 00:13:23;;;;;;;510.53;358.10;;;;;;;16.22;81.13;100404.22;5018729;28;20940;-77
2021/08/06 00:15:48;;;;;;;424.03;296.33;;;;;;;16.47;80.78;100441.72;5023371;28;20292;-77
2021/08/06 00:18:14;;;;;;;433.17;305.23;;;;;;;15.89;80.21;100346.38;5017673;28;20254;-78
2021/08/06 00:20:42;;;;;;;362.80;237.20;;;;;;;16.00;80.44;100379.81;5025374;28;20295;-78
2021/08/06 00:23:07;;;;;;;369.83;252.13;;;;;;;16.02;80.19;100364.97;5017763;28;20203;-78
2021/08/06 00:25:33;;;;;;;403.77;265.43;;;;;;;16.31;80.57;100427.09;5018835;28;20436;-77
2021/08/06 00:27:59;;;;;;;330.13;212.20;;;;;;;16.46;80.42;100432.78;5021649;28;20184;-77
2021/08/06 00:30:26;;;;;;;417.67;299.53;;;;;;;15.67;79.96;100300.28;5018549;28;20211;-77
2021/08/06 00:32:51;;;;;;;408.70;269.23;;;;;;;15.65;80.49;100307.84;5024966;28;20450;-78
2021/08/06 00:35:17;;;;;;;410.53;281.80;;;;;;;16.02;80.40;100372.25;5030600;28;20931;-78
2021/08/06 00:37:42;;;;;;;412.40;262.63;;;;;;;15.85;80.34;100345.22;5025555;28;20643;-77
2021/08/06 00:40:08;;;;;;;342.37;230.57;;;;;;;15.43;80.73;100274.47;5018678;28;20200;-78
2021/08/06 00:42:33;;;;;;;371.13;231.50;;;;;;;15.62;81.07;100308.28;5018603;28;20199;-77
2021/08/06 00:44:59;;;;;;;413.53;274.73;;;;;;;16.34;80.79;100431.22;5033088;28;20434;-77
2021/08/06 00:47:24;;;;;;;295.73;192.57;;;;;;;16.31;81.05;100423.59;5017005;28;20184;-77
2021/08/06 00:49:50;;;;;;;454.27;334.33;;;;;;;15.78;82.05;100371.59;5031944;28;20180;-78
2021/08/06 00:52:15;;;;;;;469.90;344.03;;;;;;;15.89;81.23;100361.78;5016337;28;20193;-78
2021/08/06 00:54:41;;;;;;;474.93;319.77;;;;;;;16.30;81.17;100421.97;5025293;28;20245;-78
2021/08/06 00:57:11;;;;;;;427.73;284.13;;;;;;;16.28;81.54;100424.88;5018412;28;21068;-78
2021/08/06 00:59:38;;;;;;;393.70;270.37;;;;;;;15.88;81.58;100388.00;5020653;28;20424;-77
2021/08/06 01:02:11;;;;;;;475.10;314.83;;;;;;;15.40;81.49;100285.78;5019591;28;20434;-77
2021/08/06 01:05:08;;;;;;;354.60;236.73;;;;;;;16.19;81.65;100416.38;5016600;28;20427;-77
2021/08/06 01:07:56;;;;;;;355.73;247.93;;;;;;;16.13;81.21;100401.13;5032903;28;20436;-77
2021/08/06 01:10:27;;;;;;;290.27;210.30;;;;;;;15.59;81.68;100330.41;5033391;28;20485;-77
2021/08/06 01:12:58;;;;;;;483.43;332.33;;;;;;;16.24;81.19;100412.94;5016738;28;20439;-78
2021/08/06 01:15:25;;;;;;;363.23;241.43;;;;;;;15.64;81.69;100330.50;5014633;28;20471;-78
2021/08/06 01:17:52;;;;;;;511.70;369.93;;;;;;;16.25;81.10;100412.66;5016397;28;20533;-77
2021/08/06 01:20:25;;;;;;;365.07;251.97;;;;;;;16.16;81.74;100403.34;5019797;28;20542;-78
2021/08/06 01:23:07;;;;;;;398.30;267.47;;;;;;;16.09;82.27;100401.88;5024581;28;20439;-78
2021/08/06 01:25:54;;;;;;;460.73;309.50;;;;;;;16.20;81.86;100414.47;5023259;28;20445;-77
2021/08/06 01:28:26;;;;;;;318.40;237.50;;;;;;;15.99;82.17;100389.78;5017034;28;20785;-78
2021/08/06 01:30:53;;;;;;;415.00;299.10;;;;;;;15.44;82.09;100301.25;5017570;28;20507;-78
2021/08/06 01:33:18;;;;;;;463.00;319.80;;;;;;;15.74;81.70;100335.31;5018239;28;20472;-78
2021/08/06 01:35:44;;;;;;;427.07;289.87;;;;;;;16.19;81.67;100392.00;5016651;28;20530;-77
2021/08/06 01:38:11;;;;;;;408.67;286.30;;;;;;;16.09;82.33;100388.34;5019276;28;20197;-78
2021/08/06 01:41:02;;;;;;;414.97;291.10;;;;;;;15.52;81.95;100302.72;5036824;28;20847;-78
2021/08/06 01:43:37;;;;;;;385.40;271.03;;;;;;;15.93;82.36;100379.16;5036766;28;20522;-77
2021/08/06 01:46:16;;;;;;;389.43;280.00;;;;;;;15.93;82.51;100385.38;5016998;28;21045;-78
2021/08/06 01:48:47;;;;;;;343.20;239.23;;;;;;;15.92;82.79;100370.22;5022723;28;20460;-78
2021/08/06 01:51:14;;;;;;;353.60;253.07;;;;;;;15.27;82.55;100270.69;5028577;28;20979;-77
2021/08/06 01:53:44;;;;;;;382.73;272.57;;;;;;;15.70;82.56;100328.75;5028878;28;20465;-78
2021/08/06 01:56:13;;;;;;;443.73;305.30;;;;;;;15.60;82.59;100335.59;5019816;28;21315;-78
2021/08/06 01:58:41;;;;;;;392.73;262.30;;;;;;;15.27;82.64;100276.06;5028232;28;20485;-78
2021/08/06 02:01:12;;;;;;;385.00;274.13;;;;;;;15.59;82.58;100312.34;5021391;28;20467;-78
2021/08/06 02:03:38;;;;;;;481.10;355.60;;;;;;;15.94;82.13;100367.25;5026841;28;20427;-78
2021/08/06 02:06:03;;;;;;;437.57;327.30;;;;;;;15.67;82.50;100321.09;5029232;28;20431;-77
2021/08/06 02:08:28;;;;;;;443.63;303.83;;;;;;;16.13;81.80;100365.13;5028232;28;20268;-78
2021/08/06 02:10:54;;;;;;;425.83;302.27;;;;;;;15.26;82.45;100239.31;5034149;28;20581;-78
2021/08/06 02:13:19;;;;;;;415.03;322.20;;;;;;;16.02;82.59;100354.13;5028091;28;20200;-78
2021/08/06 02:15:47;;;;;;;382.73;270.60;;;;;;;15.95;82.42;100352.69;5035910;28;20193;-78
2021/08/06 02:18:16;;;;;;;464.93;330.13;;;;;;;15.44;81.90;100241.78;5025208;28;20197;-77
2021/08/06 02:20:42;;;;;;;510.30;373.97;;;;;;;15.70;82.18;100315.22;5028073;28;20459;-78
2021/08/06 02:23:09;;;;;;;353.13;252.17;;;;;;;16.04;82.28;100337.69;5035064;28;20515;-78
2021/08/06 02:25:37;;;;;;;425.57;314.93;;;;;;;15.98;82.34;100335.97;5034050;28;20443;-78
2021/08/06 02:28:04;;;;;;;396.23;275.23;;;;;;;15.84;82.52;100307.59;5029528;28;20812;-78
2021/08/06 02:30:30;;;;;;;367.63;274.00;;;;;;;14.60;81.75;100101.28;5018394;28;20456;-78
2021/08/06 02:32:57;;;;;;;358.53;253.83;;;;;;;15.91;82.41;100335.28;5019766;28;20817;-77
2021/08/06 02:35:22;;;;;;;386.10;262.57;;;;;;;15.50;82.03;100272.41;5033513;28;20444;-78
2021/08/06 02:37:49;;;;;;;423.53;316.30;;;;;;;15.60;82.72;100305.84;5026459;28;20462;-78
2021/08/06 02:40:15;;;;;;;380.07;267.77;;;;;;;15.85;82.18;100349.81;5021564;28;20697;-78
2021/08/06 02:42:41;;;;;;;386.03;260.10;;;;;;;15.89;82.12;100332.84;5036484;28;20482;-77
2021/08/06 02:45:07;;;;;;;386.60;267.67;;;;;;;15.67;82.79;100318.38;5020003;28;20587;-78
2021/08/06 02:47:33;;;;;;;408.77;275.93;;;;;;;15.05;82.26;100213.84;5028586;28;20428;-77
2021/08/06 02:49:58;;;;;;;341.07;208.90;;;;;;;15.65;82.88;100331.31;5022185;28;20444;-78
2021/08/06 02:52:23;;;;;;;407.20;286.60;;;;;;;15.26;82.73;100261.75;5022512;28;20674;-78
2021/08/06 02:54:49;;;;;;;411.57;274.33;;;;;;;15.73;82.45;100336.34;5026346;28;20186;-78
2021/08/06 02:57:14;;;;;;;395.63;276.80;;;;;;;15.27;82.60;100259.88;5025137;28;20234;-78
2021/08/06 02:59:40;;;;;;;330.30;215.63;;;;;;;15.31;83.08;100302.38;5026522;28;20188;-78
2021/08/06 03:02:05;;;;;;;346.73;246.57;;;;;;;15.49;83.35;100322.16;5018308;28;20270;-78
2021/08/06 03:04:30;;;;;;;380.20;264.23;;;;;;;15.51;83.07;100312.72;5024819;28;20193;-78
2021/08/06 03:06:56;;;;;;;487.53;334.67;;;;;;;15.36;83.15;100288.97;5027671;28;20183;-78
2021/08/06 03:09:21;;;;;;;380.73;269.07;;;;;;;15.53;82.80;100305.19;5036800;28;20185;-78
2021/08/06 03:11:47;;;;;;;460.07;314.43;;;;;;;15.42;82.83;100292.59;5025157;28;20240;-78
2021/08/06 03:14:12;;;;;;;376.47;241.77;;;;;;;14.83;83.02;100198.34;5021461;28;20192;-77
2021/08/06 03:16:37;;;;;;;452.27;322.23;;;;;;;15.68;82.66;100309.22;5028072;28;20177;-78
2021/08/06 03:19:03;;;;;;;471.53;340.17;;;;;;;15.49;83.35;100325.66;5028130;28;20204;-78
2021/08/06 03:21:28;;;;;;;399.63;261.17;;;;;;;14.94;83.10;100215.53;5034058;28;20250;-78
2021/08/06 03:23:54;;;;;;;355.87;252.60;;;;;;;14.78;83.00;100192.03;5018247;28;20185;-78
2021/08/06 03:26:19;;;;;;;369.97;242.27;;;;;;;15.46;83.52;100309.94;5026853;28;20246;-77
2021/08/06 03:28:45;;;;;;;317.50;215.47;;;;;;;15.45;83.20;100293.94;5022972;28;20221;-78
2021/08/06 03:31:10;;;;;;;326.33;225.93;;;;;;;14.85;83.60;100214.31;5021210;28;20279;-78
2021/08/06 03:33:36;;;;;;;376.57;268.07;;;;;;;15.37;83.01;100284.38;5025123;28;20522;-77
2021/08/06 03:36:02;;;;;;;358.90;250.03;;;;;;;15.44;83.38;100303.94;5033299;28;20775;-78
2021/08/06 03:38:27;;;;;;;353.83;244.17;;;;;;;15.33;82.76;100275.94;5021249;28;20279;-78
2021/08/06 03:40:53;;;;;;;432.63;301.33;;;;;;;15.23;83.64;100274.94;5035829;28;20680;-78
2021/08/06 03:43:19;;;;;;;345.83;226.30;;;;;;;15.46;83.28;100287.50;5034534;28;20599;-77
2021/08/06 03:45:45;;;;;;;326.20;224.07;;;;;;;15.45;83.43;100300.19;5034340;28;20529;-78
2021/08/06 03:48:10;;;;;;;340.17;224.87;;;;;;;14.52;83.40;100161.84;5026049;28;20557;-78
2021/08/06 03:50:36;;;;;;;356.47;243.73;;;;;;;15.47;83.05;100283.72;5019360;28;20625;-77
2021/08/06 03:53:02;;;;;;;405.43;284.73;;;;;;;15.43;83.37;100278.00;5035568;28;20600;-77
2021/08/06 03:55:28;;;;;;;372.07;229.60;;;;;;;15.49;83.23;100281.59;5036276;28;20434;-77
2021/08/06 03:57:55;;;;;;;331.00;210.37;;;;;;;15.58;82.71;100275.53;5032833;28;20460;-77
2021/08/06 04:00:23;;;;;;;393.57;272.37;;;;;;;15.45;83.04;100288.53;5036174;28;20220;-78
2021/08/06 04:02:48;;;;;;;382.77;263.43;;;;;;;15.22;83.44;100246.28;5034219;28;20506;-77
2021/08/06 04:05:15;;;;;;;307.23;205.43;;;;;;;15.44;82.84;100260.69;5022278;28;20471;-77
2021/08/06 04:07:45;;;;;;;326.60;220.67;;;;;;;15.09;82.56;100193.38;5025778;28;20255;-78
2021/08/06 04:10:12;;;;;;;326.03;221.80;;;;;;;15.53;82.67;100278.16;5019711;28;21053;-77
2021/08/06 04:12:38;;;;;;;317.73;211.50;;;;;;;15.43;83.30;100278.00;5020199;28;20466;-77
2021/08/06 04:15:04;;;;;;;348.70;236.00;;;;;;;15.55;82.31;100292.25;5019184;28;20461;-77
2021/08/06 04:17:29;;;;;;;336.27;226.57;;;;;;;15.40;82.48;100229.84;5019481;28;20224;-78
2021/08/06 04:19:55;;;;;;;359.70;239.40;;;;;;;14.78;82.57;100171.28;5034862;28;20520;-78
2021/08/06 04:22:20;;;;;;;392.10;273.27;;;;;;;15.63;82.76;100282.09;5023429;28;20212;-77
2021/08/06 04:24:45;;;;;;;325.67;220.33;;;;;;;15.39;82.74;100252.53;5020192;28;20180;-77
2021/08/06 04:27:11;;;;;;;388.33;270.83;;;;;;;14.78;82.79;100167.72;5018583;28;20264;-78
2021/08/06 04:29:36;;;;;;;460.17;327.33;;;;;;;15.57;83.42;100279.31;5020403;28;20219;-78
2021/08/06 04:32:02;;;;;;;329.33;219.87;;;;;;;15.75;81.34;100245.81;5020661;28;20196;-78
2021/08/06 04:34:27;;;;;;;332.73;214.87;;;;;;;15.56;82.37;100250.66;5034810;28;20191;-78
2021/08/06 04:36:54;;;;;;;378.13;258.10;;;;;;;15.30;82.50;100200.78;5024034;28;20180;-77
2021/08/06 04:39:20;;;;;;;436.57;303.00;;;;;;;15.63;82.75;100252.38;5018883;28;20751;-78
2021/08/06 04:41:46;;;;;;;366.77;254.23;;;;;;;15.94;81.63;100281.56;5019562;28;20463;-77
2021/08/06 04:44:11;;;;;;;284.43;203.27;;;;;;;15.78;81.83;100260.75;5023900;28;20970;-77
2021/08/06 04:46:37;;;;;;;306.80;206.67;;;;;;;15.20;81.52;100132.25;5033070;28;20672;-77
2021/08/06 04:49:03;;;;;;;375.93;270.77;;;;;;;15.93;80.83;100231.22;5018333;28;20572;-78
2021/08/06 04:51:29;;;;;;;361.50;237.20;;;;;;;16.11;81.25;100283.38;5026394;28;20455;-77
2021/08/06 04:53:54;;;;;;;392.03;278.13;;;;;;;15.79;82.58;100252.41;5022589;28;20184;-77
2021/08/06 04:56:19;;;;;;;344.10;216.27;;;;;;;15.76;81.81;100235.81;5020027;28;20227;-78
2021/08/06 04:58:45;;;;;;;423.97;273.70;;;;;;;15.82;81.79;100241.09;5022939;28;20689;-77
2021/08/06 05:01:10;;;;;;;304.83;206.17;;;;;;;15.54;81.75;100173.56;5021498;28;20242;-77
2021/08/06 05:03:36;;;;;;;336.00;231.87;;;;;;;16.14;81.91;100258.53;5026267;28;20780;-77
2021/08/06 05:06:03;;;;;;;393.07;260.50;;;;;;;16.13;82.05;100254.22;5028918;28;20188;-76
2021/08/06 05:08:29;;;;;;;376.23;252.03;;;;;;;15.92;82.14;100240.41;5033192;28;20192;-77
2021/08/06 05:10:54;;;;;;;405.40;293.23;;;;;;;15.69;82.34;100183.81;5030674;28;20455;-77
2021/08/06 05:13:20;;;;;;;434.73;336.57;;;;;;;15.13;82.07;100076.53;5026968;28;20250;-77
2021/08/06 05:15:45;;;;;;;422.80;278.13;;;;;;;16.35;81.57;100256.94;5036774;28;20546;-77
2021/08/06 05:18:11;;;;;;;424.60;285.97;;;;;;;16.33;81.83;100261.78;5028788;28;20287;-77
2021/08/06 05:20:36;;;;;;;324.87;227.90;;;;;;;16.15;82.19;100219.63;5023999;28;20816;-77
2021/08/06 05:23:02;;;;;;;364.43;254.93;;;;;;;16.22;82.18;100247.28;5038085;28;20185;-77
2021/08/06 05:25:28;;;;;;;391.53;257.27;;;;;;;16.05;82.11;100220.28;5038151;28;20180;-77
2021/08/06 05:27:53;;;;;;;428.30;307.00;;;;;;;15.71;81.96;100143.84;5031951;28;20180;-77
2021/08/06 05:30:21;;;;;;;416.60;289.93;;;;;;;16.40;81.85;100235.34;5026288;28;20211;-78
2021/08/06 05:32:47;;;;;;;427.30;299.97;;;;;;;15.91;81.90;100160.34;5037680;28;20173;-77
2021/08/06 05:35:13;;;;;;;411.77;295.63;;;;;;;15.73;81.74;100118.16;5038394;28;20477;-78
2021/08/06 05:37:38;;;;;;;394.13;269.73;;;;;;;16.21;81.90;100211.31;5021209;28;20212;-77
2021/08/06 05:40:04;;;;;;;339.87;256.70;;;;;;;15.19;82.24;100072.00;5023875;28;20684;-78
2021/08/06 05:42:29;;;;;;;508.07;358.67;;;;;;;15.90;82.13;100171.41;5023052;28;20206;-77
2021/08/06 05:44:55;;;;;;;368.80;270.03;;;;;;;15.46;82.19;100107.25;5030015;28;20927;-77
2021/08/06 05:47:20;;;;;;;418.80;290.90;;;;;;;16.38;81.98;100213.13;5027633;28;20721;-77
2021/08/06 05:49:46;;;;;;;341.33;229.93;;;;;;;16.26;82.38;100226.78;5035574;28;20721;-78
2021/08/06 05:52:11;;;;;;;481.97;342.27;;;;;;;15.71;82.50;100125.72;5021964;28;20188;-77
2021/08/06 05:54:36;;;;;;;390.33;287.77;;;;;;;16.44;81.97;100231.06;5023287;28;20180;-77
2021/08/06 05:57:02;;;;;;;431.90;296.17;;;;;;;16.61;81.96;100256.19;5030037;28;20276;-78
2021/08/06 05:59:27;;;;;;;496.47;369.07;;;;;;;16.47;82.05;100215.13;5022526;28;20597;-77
2021/08/06 06:01:53;;;;;;;441.80;305.77;;;;;;;16.50;82.42;100254.44;5025654;28;20701;-77
2021/08/06 06:04:18;;;;;;;470.97;347.40;;;;;;;16.28;81.88;100179.44;5036448;28;20719;-76
2021/08/06 06:06:43;;;;;;;486.33;351.10;;;;;;;16.58;81.63;100229.63;5027207;28;20184;-77
2021/08/06 06:09:09;;;;;;;468.13;353.00;;;;;;;15.94;81.90;100086.81;5023952;28;20172;-77
2021/08/06 06:11:34;;;;;;;474.00;333.70;;;;;;;16.67;81.74;100179.34;5023686;28;20203;-77
2021/08/06 06:14:00;;;;;;;440.90;295.37;;;;;;;16.19;82.26;100121.44;5024881;28;20251;-77
2021/08/06 06:16:27;;;;;;;429.50;290.80;;;;;;;16.52;82.53;100202.72;5016353;28;20216;-77
2021/08/06 06:18:52;;;;;;;537.97;414.40;;;;;;;16.62;82.23;100192.84;5020720;28;20471;-77
2021/08/06 06:21:18;;;;;;;498.23;366.30;;;;;;;16.54;81.72;100168.09;5022515;28;20465;-77
2021/08/06 06:23:43;;;;;;;451.73;348.03;;;;;;;16.30;81.90;100119.69;5022985;28;20264;-78
2021/08/06 06:26:09;;;;;;;530.93;401.17;;;;;;;16.47;81.93;100173.72;5018613;28;20267;-77
2021/08/06 06:28:35;;;;;;;504.57;393.63;;;;;;;17.03;81.52;100244.75;5021652;28;20168;-78
2021/08/06 06:31:01;;;;;;;424.23;295.77;;;;;;;16.14;81.94;100109.75;5036851;28;20600;-78
2021/08/06 06:33:26;;;;;;;447.17;336.87;;;;;;;15.96;82.05;100121.72;5022904;28;20534;-78
2021/08/06 06:35:55;;;;;;;482.87;350.97;;;;;;;16.92;81.38;100224.88;5027956;28;20283;-78
2021/08/06 06:38:20;;;;;;;546.33;430.30;;;;;;;16.84;81.28;100208.28;5019371;28;20213;-77
2021/08/06 06:40:46;;;;;;;615.57;454.53;;;;;;;16.55;81.24;100137.25;5021619;28;20512;-77
2021/08/06 06:43:11;;;;;;;519.80;399.63;;;;;;;17.12;81.42;100251.31;5017866;28;20235;-77
2021/08/06 06:45:36;;;;;;;502.37;375.17;;;;;;;16.53;80.85;100156.47;5017523;28;20192;-77
2021/08/06 06:48:02;;;;;;;504.23;364.30;;;;;;;16.47;80.37;100136.63;5021700;28;20195;-77
2021/08/06 06:50:29;;;;;;;532.17;424.97;;;;;;;17.28;81.40;100238.75;5018254;28;20617;-78
2021/08/06 06:52:55;;;;;;;548.93;426.00;;;;;;;16.81;80.84;100174.38;5019446;28;20208;-78
2021/08/06 06:55:21;;;;;;;423.40;303.90;;;;;;;16.78;80.66;100149.69;5019452;28;20436;-78
2021/08/06 06:57:58;;;;;;;435.47;338.87;;;;;;;16.79;80.17;100130.47;5020487;28;20232;-78
2021/08/06 07:00:27;;;;;;;431.93;311.30;;;;;;;17.53;79.65;100232.72;5021004;28;20508;-78
2021/08/06 07:02:52;;;;;;;557.93;419.23;;;;;;;17.56;79.29;100221.38;5020745;28;20428;-78
2021/08/06 07:05:18;;;;;;;542.67;413.37;;;;;;;16.94;79.52;100102.72;5022467;28;20944;-78
2021/08/06 07:07:46;;;;;;;539.90;412.13;;;;;;;17.62;79.42;100205.94;5022336;28;20177;-78
2021/08/06 07:10:12;;;;;;;429.60;342.70;;;;;;;17.14;79.66;100208.53;5021696;28;20203;-77
2021/08/06 07:12:39;;;;;;;458.23;335.17;;;;;;;17.66;80.27;100233.34;5020834;28;20485;-78
2021/08/06 07:15:06;;;;;;;397.93;310.27;;;;;;;17.48;79.53;100202.03;5021549;28;20438;-78
2021/08/06 07:17:32;;;;;;;513.87;384.27;;;;;;;17.69;79.95;100222.78;5023223;28;20515;-78
2021/08/06 07:19:58;;;;;;;561.50;420.63;;;;;;;17.12;79.52;100126.69;5021708;28;20458;-78
2021/08/06 07:22:24;;;;;;;586.83;469.07;;;;;;;17.71;80.18;100231.50;5021291;28;20468;-77
2021/08/06 07:24:50;;;;;;;504.70;388.13;;;;;;;17.55;79.65;100186.34;5020820;28;20173;-77
2021/08/06 07:27:15;;;;;;;595.13;469.50;;;;;;;17.46;79.71;100183.31;5018719;28;20474;-77
2021/08/06 07:29:41;;;;;;;575.37;466.00;;;;;;;17.45;79.81;100178.97;5022254;28;20645;-77
2021/08/06 07:32:06;;;;;;;528.70;412.90;;;;;;;17.52;79.90;100203.16;5021360;28;20265;-76
2021/08/06 07:34:32;;;;;;;628.10;485.60;;;;;;;15.98;79.88;99950.00;5021664;28;20555;-77
2021/08/06 07:36:57;;;;;;;746.57;625.70;;;;;;;16.97;79.93;100117.63;5020736;28;20176;-77
2021/08/06 07:39:23;;;;;;;619.93;492.87;;;;;;;17.27;80.55;100177.50;5023873;28;20180;-78
2021/08/06 07:41:48;;;;;;;620.60;496.73;;;;;;;16.11;79.51;99991.22;5020926;28;20207;-78
2021/08/06 07:44:13;;;;;;;545.20;404.50;;;;;;;16.29;79.14;99988.16;5021171;28;20188;-77
2021/08/06 07:46:39;;;;;;;539.37;416.07;;;;;;;17.47;79.94;100176.81;5022007;28;20550;-77
2021/08/06 07:49:04;;;;;;;654.20;545.57;;;;;;;17.50;79.29;100191.72;5022422;28;20672;-77
2021/08/06 07:51:30;;;;;;;523.43;392.00;;;;;;;17.50;79.96;100200.72;5019322;28;20201;-78
2021/08/06 07:53:55;;;;;;;524.40;407.40;;;;;;;16.97;79.43;100072.38;5019553;28;20660;-77
2021/08/06 07:56:21;;;;;;;571.90;440.37;;;;;;;16.94;80.52;100057.47;5019368;28;20203;-78
2021/08/06 07:58:46;;;;;;;587.23;481.13;;;;;;;17.77;80.26;100184.34;5018616;28;20193;-78
2021/08/06 08:01:12;;;;;;;579.90;436.17;;;;;;;18.13;80.10;100219.81;5013497;23;20700;-78
2021/08/06 08:03:37;;;;;;;479.67;378.07;;;;;;;17.22;80.30;100111.59;5000089;28;20671;-78
2021/08/06 08:06:02;;;;;;;608.10;496.67;;;;;;;18.04;80.19;100221.41;4997373;28;20194;-77
2021/08/06 08:08:28;;;;;;;697.33;570.27;;;;;;;17.99;81.26;100243.09;5001237;28;20801;-78
2021/08/06 08:10:53;;;;;;;795.90;681.70;;;;;;;17.77;81.11;100181.63;5000568;28;20213;-78
2021/08/06 08:13:19;;;;;;;658.63;553.50;;;;;;;18.16;81.27;100221.19;5000517;28;20185;-78
2021/08/06 08:15:47;;;;;;;693.27;590.47;;;;;;;17.67;81.59;100150.91;5013874;28;20181;-78
2021/08/06 08:18:12;;;;;;;772.90;665.97;;;;;;;17.97;80.74;100180.94;5006354;28;20200;-78
2021/08/06 08:20:38;;;;;;;789.00;632.97;;;;;;;18.07;81.04;100183.69;5006081;28;20459;-78
2021/08/06 08:23:04;;;;;;;779.07;642.40;;;;;;;18.55;80.66;100223.53;4999765;28;20181;-78
2021/08/06 08:25:30;;;;;;;758.10;617.13;;;;;;;18.17;79.89;100177.53;4999489;28;20272;-78
2021/08/06 08:27:56;;;;;;;592.00;480.80;;;;;;;17.46;79.76;100093.84;4998368;28;20559;-78
2021/08/06 08:30:21;;;;;;;686.17;544.47;;;;;;;17.28;80.33;100068.00;4998867;28;20861;-77
2021/08/06 08:32:46;;;;;;;722.43;594.50;;;;;;;18.52;80.05;100236.56;5006964;28;20186;-78
2021/08/06 08:35:12;;;;;;;799.70;686.83;;;;;;;17.79;80.10;100098.13;4998903;28;20211;-77
2021/08/06 08:37:37;;;;;;;635.80;511.87;;;;;;;18.19;79.58;100183.47;5000428;28;20213;-78
2021/08/06 08:40:05;;;;;;;709.90;585.07;;;;;;;18.06;79.47;100151.41;5001702;28;20212;-78
2021/08/06 08:42:30;;;;;;;677.50;547.73;;;;;;;17.21;80.13;100043.00;5000347;28;20198;-77
2021/08/06 08:45:00;;;;;;;830.73;703.83;;;;;;;18.27;80.81;100206.59;5002143;28;20776;-78
2021/08/06 08:47:27;;;;;;;825.37;660.30;;;;;;;18.35;81.12;100200.66;5008104;28;20173;-78
2021/08/06 08:49:52;;;;;;;917.87;736.43;;;;;;;18.72;81.69;100221.44;5014006;28;20427;-78
2021/08/06 08:52:19;;;;;;;1006.60;753.83;;;;;;;17.97;79.99;100118.53;5001313;28;20439;-78
2021/08/06 08:54:45;;;;;;;979.90;721.43;;;;;;;18.13;80.03;100140.31;5012556;28;20186;-78
2021/08/06 08:57:10;;;;;;;917.80;697.73;;;;;;;18.80;79.01;100211.94;5000807;28;20817;-78
2021/08/06 08:59:37;;;;;;;895.47;654.47;;;;;;;18.63;79.62;100218.41;4999320;28;20202;-78
2021/08/06 09:02:02;;;;;;;889.40;665.07;;;;;;;18.15;79.06;100121.88;4999478;28;20889;-78
2021/08/06 09:04:29;;;;;;;870.93;595.73;;;;;;;18.84;78.98;100218.50;5002799;28;20194;-78
2021/08/06 09:06:57;;;;;;;1011.67;762.20;;;;;;;19.01;80.72;100212.81;4999658;28;20201;-78
2021/08/06 09:09:24;;;;;;;1089.90;829.87;;;;;;;18.87;81.68;100188.06;4999569;28;20877;-78
2021/08/06 09:12:01;;;;;;;1114.40;818.37;;;;;;;18.88;81.37;100204.09;5001321;28;20503;-78
2021/08/06 09:14:29;;;;;;;1141.87;891.50;;;;;;;19.00;81.53;100203.81;4997327;28;20538;-78
2021/08/06 09:16:55;;;;;;;978.13;754.23;;;;;;;18.99;80.40;100207.63;4998772;28;20952;-78
2021/08/06 09:19:20;;;;;;;1112.93;843.63;;;;;;;18.94;80.86;100202.19;5022588;28;20863;-78
2021/08/06 09:21:46;;;;;;;1111.50;854.03;;;;;;;18.19;80.03;100093.91;4999421;28;20468;-78
2021/08/06 09:24:11;;;;;;;1057.43;774.40;;;;;;;18.20;80.52;100082.00;4998495;28;20193;-78
2021/08/06 09:26:42;;;;;;;1107.63;851.00;;;;;;;18.76;80.04;100194.56;4991672;28;20220;-78
2021/08/06 09:29:22;;;;;;;964.50;717.47;;;;;;;17.97;80.15;100082.47;5000513;28;20173;-78
2021/08/06 09:31:50;;;;;;;913.33;672.53;;;;;;;18.77;81.20;100212.47;5003671;28;20460;-78
2021/08/06 09:34:19;;;;;;;1063.43;808.27;;;;;;;18.76;82.82;100211.66;5017008;28;20448;-79
2021/08/06 09:36:51;;;;;;;1059.10;801.03;;;;;;;18.69;83.79;100225.50;5002491;28;20443;-79
2021/08/06 09:39:17;;;;;;;1042.53;796.27;;;;;;;18.67;84.33;100208.63;5015513;28;21023;-78
2021/08/06 09:41:45;;;;;;;1015.17;793.90;;;;;;;18.78;85.04;100214.13;5001632;28;20453;-77
2021/08/06 09:44:25;;;;;;;1017.07;829.97;;;;;;;18.16;84.30;100099.06;5007620;28;20439;-78
2021/08/06 09:46:51;;;;;;;956.77;778.47;;;;;;;19.02;84.25;100206.28;5000898;28;20443;-78
2021/08/06 09:49:18;;;;;;;929.27;765.93;;;;;;;18.94;83.69;100172.28;4998946;28;20835;-78
2021/08/06 09:51:46;;;;;;;996.77;813.77;;;;;;;18.30;83.45;100065.72;4998037;28;20457;-77
2021/08/06 09:54:29;;;;;;;1019.73;829.00;;;;;;;19.15;82.01;100217.44;5011993;28;20532;-77
2021/08/06 09:57:11;;;;;;;1018.47;835.20;;;;;;;19.00;83.72;100217.41;4999777;28;20502;-77
2021/08/06 09:59:38;;;;;;;1022.17;823.97;;;;;;;18.14;83.18;100074.06;5000145;28;20444;-77
2021/08/06 10:02:10;;;;;;;992.00;747.43;;;;;;;18.87;82.93;100220.66;4996935;28;20462;-77
2021/08/06 10:04:35;;;;;;;904.83;715.87;;;;;;;18.58;83.89;100212.97;5001877;28;20945;-78
2021/08/06 10:07:01;;;;;;;951.47;802.37;;;;;;;18.55;85.31;100220.81;5008876;28;20468;-78
2021/08/06 10:09:27;;;;;;;961.50;789.00;;;;;;;18.39;86.27;100171.88;4998825;28;20237;-77
2021/08/06 10:11:52;;;;;;;1066.27;834.20;;;;;;;18.67;86.46;100184.19;5009624;23;20773;-78
2021/08/06 10:14:18;;;;;;;1025.20;813.20;;;;;;;18.78;85.38;100163.31;5018300;28;20203;-78
2021/08/06 10:16:45;;;;;;;1064.30;824.33;;;;;;;18.81;84.62;100115.78;5007346;28;20190;-78
2021/08/06 10:19:10;;;;;;;1096.47;868.30;;;;;;;19.13;83.50;100183.47;5003299;28;20472;-77
2021/08/06 10:21:36;;;;;;;985.27;795.33;;;;;;;19.26;83.74;100172.03;4997446;28;20809;-77
2021/08/06 10:24:02;;;;;;;1004.90;788.40;;;;;;;19.18;83.36;100116.31;5010099;28;20184;-77
2021/08/06 10:26:27;;;;;;;1050.37;802.03;;;;;;;19.06;81.04;100114.97;5007578;28;20188;-77
2021/08/06 10:28:53;;;;;;;1004.93;806.03;;;;;;;18.60;81.13;100061.41;5001987;28;20548;-77
2021/08/06 10:31:23;;;;;;;935.23;782.77;;;;;;;19.32;80.67;100176.38;5003028;28;20218;-77
2021/08/06 10:34:08;;;;;;;921.83;782.47;;;;;;;19.30;81.14;100177.75;5001730;28;20201;-77
2021/08/06 10:36:44;;;;;;;970.17;819.37;;;;;;;18.91;80.86;100094.03;5002483;28;20436;-77
2021/08/06 10:39:33;;;;;;;958.23;825.33;;;;;;;19.40;79.95;100169.56;5003085;28;20538;-77
2021/08/06 10:41:59;;;;;;;964.77;839.47;;;;;;;19.22;79.92;100142.97;5000698;28;20483;-78
2021/08/06 10:44:25;;;;;;;995.77;833.20;;;;;;;18.98;80.67;100110.91;5005156;28;20444;-76
2021/08/06 10:47:02;;;;;;;967.60;815.20;;;;;;;18.99;81.50;100155.19;5006186;28;20482;-77
2021/08/06 10:49:29;;;;;;;923.40;766.63;;;;;;;19.07;82.49;100201.66;5002081;28;20188;-78
2021/08/06 10:52:16;;;;;;;899.77;772.53;;;;;;;18.87;83.11;100194.31;5022645;22;20527;-77
2021/08/06 10:54:42;;;;;;;931.50;784.40;;;;;;;18.15;82.93;100064.88;5019903;28;20858;-79